createdAt,value
2022-09-26T00:02:17.505Z,12.66
2022-09-26T00:04:43.921Z,12.68
2022-09-26T00:07:10.234Z,12.69
2022-09-26T00:09:36.399Z,12.62
2022-09-26T00:12:03.589Z,12.53
2022-09-26T00:14:30.083Z,12.51
2022-09-26T00:16:56.956Z,12.42
2022-09-26T00:19:23.795Z,12.39
2022-09-26T00:21:50.438Z,12.36
2022-09-26T00:24:16.834Z,12.33
2022-09-26T00:26:43.071Z,12.32
2022-09-26T00:29:12.092Z,12.20
2022-09-26T00:31:43.471Z,12.15
2022-09-26T00:34:12.160Z,12.11
2022-09-26T00:36:39.032Z,12.10
2022-09-26T00:39:07.934Z,11.95
2022-09-26T00:41:35.264Z,11.91
2022-09-26T00:44:02.487Z,11.92
2022-09-26T00:46:41.939Z,11.83
2022-09-26T00:49:22.151Z,11.78
2022-09-26T00:51:55.779Z,11.76
2022-09-26T00:54:23.155Z,11.81
2022-09-26T00:56:55.030Z,11.77
2022-09-26T00:59:43.729Z,11.75
2022-09-26T01:02:11.003Z,11.64
2022-09-26T01:04:39.928Z,11.53
2022-09-26T01:07:09.951Z,11.54
2022-09-26T01:09:38.653Z,11.53
2022-09-26T01:12:08.012Z,11.44
2022-09-26T01:14:36.369Z,11.43
2022-09-26T01:17:03.440Z,11.37
2022-09-26T01:19:51.473Z,11.47
2022-09-26T01:22:42.548Z,11.46
2022-09-26T01:25:34.255Z,11.47
2022-09-26T01:28:22.388Z,11.50
2022-09-26T01:30:55.612Z,11.39
2022-09-26T01:34:02.640Z,11.40
2022-09-26T01:36:48.774Z,11.35
2022-09-26T01:40:06.568Z,11.31
2022-09-26T01:42:54.677Z,11.25
2022-09-26T01:45:25.350Z,11.23
2022-09-26T01:48:05.463Z,11.20
2022-09-26T01:50:45.338Z,11.17
2022-09-26T01:53:17.162Z,11.12
2022-09-26T01:55:58.692Z,11.04
2022-09-26T01:58:32.982Z,11.09
2022-09-26T02:01:06.496Z,11.01
2022-09-26T02:03:37.438Z,11.03
2022-09-26T02:06:11.925Z,11.02
2022-09-26T02:08:46.146Z,10.95
2022-09-26T02:11:17.830Z,11.01
2022-09-26T02:13:56.058Z,11.00
2022-09-26T02:16:31.492Z,11.03
2022-09-26T02:19:28.534Z,11.01
2022-09-26T02:21:58.018Z,11.05
2022-09-26T02:24:24.581Z,10.90
2022-09-26T02:26:51.924Z,10.64
2022-09-26T02:29:20.281Z,10.82
2022-09-26T02:32:00.186Z,10.87
2022-09-26T02:34:26.933Z,10.96
2022-09-26T02:36:55.106Z,11.02
2022-09-26T02:39:24.126Z,10.94
2022-09-26T02:42:12.731Z,11.03
2022-09-26T02:44:42.770Z,11.07
2022-09-26T02:47:46.569Z,11.01
2022-09-26T02:50:44.287Z,10.98
2022-09-26T02:53:32.103Z,10.99
2022-09-26T02:56:26.011Z,10.99
2022-09-26T02:59:06.779Z,10.92
2022-09-26T03:01:47.402Z,10.85
2022-09-26T03:04:39.867Z,10.92
2022-09-26T03:07:11.731Z,10.89
2022-09-26T03:09:40.910Z,10.95
2022-09-26T03:12:09.241Z,10.95
2022-09-26T03:14:39.136Z,11.00
2022-09-26T03:17:07.154Z,10.94
2022-09-26T03:19:45.946Z,10.98
2022-09-26T03:22:14.828Z,10.95
2022-09-26T03:24:42.543Z,10.97
2022-09-26T03:27:12.091Z,10.96
2022-09-26T03:29:38.867Z,10.95
2022-09-26T03:32:07.681Z,10.98
2022-09-26T03:34:33.891Z,10.98
2022-09-26T03:37:00.341Z,10.95
2022-09-26T03:39:26.675Z,11.00
2022-09-26T03:42:02.801Z,11.01
2022-09-26T03:44:30.636Z,10.98
2022-09-26T03:47:03.797Z,11.02
2022-09-26T03:49:30.875Z,10.98
2022-09-26T03:51:57.265Z,10.85
2022-09-26T03:54:24.174Z,10.83
2022-09-26T03:56:50.391Z,10.75
2022-09-26T03:59:16.589Z,10.71
2022-09-26T04:01:44.282Z,10.63
2022-09-26T04:04:14.513Z,10.57
2022-09-26T04:06:44.084Z,10.48
2022-09-26T04:09:16.467Z,10.43
2022-09-26T04:11:46.239Z,10.48
2022-09-26T04:14:12.672Z,10.45
2022-09-26T04:16:39.274Z,10.47
2022-09-26T04:19:14.427Z,10.49
2022-09-26T04:21:41.531Z,10.40
2022-09-26T04:24:13.656Z,10.31
2022-09-26T04:26:41.281Z,10.27
2022-09-26T04:29:08.282Z,10.24
2022-09-26T04:32:03.697Z,10.21
2022-09-26T04:34:39.525Z,10.14
2022-09-26T04:37:07.535Z,10.12
2022-09-26T04:39:35.231Z,10.07
2022-09-26T04:42:01.405Z,10.00
2022-09-26T04:44:29.640Z,9.95
2022-09-26T04:46:57.849Z,10.00
2022-09-26T04:49:34.171Z,9.97
2022-09-26T04:52:00.502Z,10.13
2022-09-26T04:54:26.748Z,10.20
2022-09-26T04:56:53.868Z,10.38
2022-09-26T04:59:20.136Z,10.28
2022-09-26T05:01:58.740Z,10.33
2022-09-26T05:04:32.684Z,10.37
2022-09-26T05:06:59.363Z,10.45
2022-09-26T05:09:32.848Z,10.48
2022-09-26T05:12:05.251Z,10.61
2022-09-26T05:14:34.672Z,10.75
2022-09-26T05:17:02.302Z,10.70
2022-09-26T05:19:29.543Z,10.72
2022-09-26T05:22:20.407Z,10.62
2022-09-26T05:25:06.177Z,10.55
2022-09-26T05:27:33.661Z,10.58
2022-09-26T05:30:00.230Z,10.69
2022-09-26T05:32:28.427Z,10.75
2022-09-26T05:34:55.412Z,10.85
2022-09-26T05:37:23.591Z,11.00
2022-09-26T05:40:08.774Z,11.06
2022-09-26T05:42:39.864Z,11.19
2022-09-26T05:45:07.365Z,11.18
2022-09-26T05:47:35.503Z,11.36
2022-09-26T05:50:09.087Z,11.41
2022-09-26T05:52:37.264Z,11.58
2022-09-26T05:55:05.057Z,11.65
2022-09-26T05:57:52.721Z,11.75
2022-09-26T06:00:21.079Z,11.89
2022-09-26T06:02:55.016Z,12.07
2022-09-26T06:05:35.507Z,12.19
2022-09-26T06:08:14.320Z,12.39
2022-09-26T06:10:47.993Z,12.63
2022-09-26T06:13:14.551Z,13.01
2022-09-26T06:15:51.886Z,12.99
2022-09-26T06:18:18.400Z,12.89
2022-09-26T06:20:44.852Z,12.91
2022-09-26T06:23:12.103Z,13.04
2022-09-26T06:25:39.431Z,13.06
2022-09-26T06:28:06.343Z,13.12
2022-09-26T06:30:33.374Z,13.27
2022-09-26T06:33:10.620Z,13.31
2022-09-26T06:35:41.259Z,13.21
2022-09-26T06:38:19.582Z,13.24
2022-09-26T06:40:46.551Z,13.46
2022-09-26T06:43:12.842Z,13.60
2022-09-26T06:45:57.925Z,13.74
2022-09-26T06:48:47.593Z,13.97
2022-09-26T06:51:27.181Z,13.93
2022-09-26T06:53:53.803Z,14.19
2022-09-26T06:56:24.819Z,14.48
2022-09-26T06:58:51.295Z,14.76
2022-09-26T07:01:21.841Z,14.79
2022-09-26T07:04:21.019Z,14.94
2022-09-26T07:07:00.901Z,14.89
2022-09-26T07:09:27.765Z,14.87
2022-09-26T07:12:20.496Z,14.56
2022-09-26T07:14:51.425Z,14.39
2022-09-26T07:17:25.597Z,14.41
2022-09-26T07:20:12.942Z,14.67
2022-09-26T07:23:01.850Z,14.66
2022-09-26T07:25:30.962Z,14.93
2022-09-26T07:27:58.601Z,15.06
2022-09-26T07:30:34.734Z,15.10
2022-09-26T07:33:11.977Z,15.12
2022-09-26T07:36:05.066Z,15.25
2022-09-26T07:38:32.177Z,15.41
2022-09-26T07:40:59.971Z,15.59
2022-09-26T07:43:42.796Z,15.40
2022-09-26T07:46:32.008Z,15.50
2022-09-26T07:49:17.545Z,15.14
2022-09-26T07:52:14.235Z,15.13
2022-09-26T07:54:54.956Z,15.25
2022-09-26T07:57:44.070Z,15.33
2022-09-26T08:00:30.680Z,15.63
2022-09-26T08:03:06.463Z,15.88
2022-09-26T08:05:36.491Z,15.98
2022-09-26T08:08:04.131Z,16.22
2022-09-26T08:10:48.996Z,16.63
2022-09-26T08:13:33.530Z,16.74
2022-09-26T08:16:22.295Z,16.54
2022-09-26T08:18:52.629Z,16.74
2022-09-26T08:21:20.451Z,16.53
2022-09-26T08:23:47.501Z,16.42
2022-09-26T08:26:43.247Z,16.47
2022-09-26T08:29:18.330Z,16.55
2022-09-26T08:31:47.829Z,16.84
2022-09-26T08:34:14.534Z,16.65
2022-09-26T08:36:43.418Z,16.34
2022-09-26T08:39:15.055Z,16.10
2022-09-26T08:42:08.822Z,16.34
2022-09-26T08:45:47.293Z,16.45
2022-09-26T08:48:49.983Z,16.22
2022-09-26T08:51:39.651Z,16.11
2022-09-26T08:54:19.630Z,16.15
2022-09-26T08:56:51.793Z,16.28
2022-09-26T08:59:30.786Z,16.60
2022-09-26T09:02:01.807Z,16.56
2022-09-26T09:04:48.105Z,16.53
2022-09-26T09:07:23.855Z,16.85
2022-09-26T09:09:55.820Z,16.93
2022-09-26T09:12:39.191Z,17.07
2022-09-26T09:16:13.719Z,17.02
2022-09-26T09:19:30.638Z,17.12
2022-09-26T09:22:13.227Z,17.28
2022-09-26T09:25:02.891Z,17.51
2022-09-26T09:27:53.616Z,17.48
2022-09-26T09:30:40.877Z,17.28
2022-09-26T09:33:51.502Z,17.29
2022-09-26T09:36:31.465Z,17.32
2022-09-26T09:39:30.523Z,17.18
2022-09-26T09:42:37.961Z,17.25
2022-09-26T09:45:24.757Z,17.18
2022-09-26T09:47:51.309Z,17.19
2022-09-26T09:50:39.087Z,17.23
2022-09-26T09:53:30.112Z,17.19
2022-09-26T09:56:15.336Z,16.92
2022-09-26T09:58:58.455Z,16.99
2022-09-26T10:01:30.013Z,17.10
2022-09-26T10:04:06.288Z,17.32
2022-09-26T10:06:45.364Z,17.43
2022-09-26T10:09:35.460Z,17.47
2022-09-26T10:12:42.820Z,17.79
2022-09-26T10:15:27.461Z,17.95
2022-09-26T10:18:24.627Z,18.03
2022-09-26T10:21:15.492Z,17.88
2022-09-26T10:23:46.146Z,17.64
2022-09-26T10:26:30.450Z,17.32
2022-09-26T10:29:07.402Z,17.70
2022-09-26T10:31:42.387Z,17.89
2022-09-26T10:34:28.038Z,17.76
2022-09-26T10:36:55.292Z,17.80
2022-09-26T10:39:43.066Z,17.77
2022-09-26T10:42:38.223Z,17.83
2022-09-26T10:45:28.558Z,17.94
2022-09-26T10:48:21.274Z,18.00
2022-09-26T10:51:07.876Z,17.95
2022-09-26T10:53:44.749Z,17.62
2022-09-26T10:56:19.923Z,17.42
2022-09-26T10:58:46.527Z,17.35
2022-09-26T11:01:21.181Z,17.16
2022-09-26T11:03:49.452Z,17.32
2022-09-26T11:06:33.282Z,17.47
2022-09-26T11:09:22.106Z,17.59
2022-09-26T11:12:28.995Z,17.75
2022-09-26T11:15:08.680Z,18.00
2022-09-26T11:17:47.299Z,18.11
2022-09-26T11:20:52.718Z,18.22
2022-09-26T11:23:35.106Z,18.18
2022-09-26T11:26:14.453Z,17.89
2022-09-26T11:28:46.395Z,17.72
2022-09-26T11:31:42.078Z,17.54
2022-09-26T11:34:33.749Z,17.26
2022-09-26T11:37:30.340Z,17.11
2022-09-26T11:40:21.242Z,16.88
2022-09-26T11:43:07.927Z,16.60
2022-09-26T11:46:30.614Z,16.49
2022-09-26T11:49:28.577Z,16.33
2022-09-26T11:52:18.830Z,16.31
2022-09-26T11:54:57.733Z,16.19
2022-09-26T11:57:40.126Z,16.10
2022-09-26T12:00:25.681Z,16.00
2022-09-26T12:03:00.244Z,15.91
2022-09-26T12:05:48.494Z,15.92
2022-09-26T12:08:23.543Z,15.84
2022-09-26T12:10:49.881Z,15.82
2022-09-26T12:13:41.076Z,15.82
2022-09-26T12:17:00.693Z,15.90
2022-09-26T12:19:55.005Z,15.94
2022-09-26T12:22:30.323Z,15.93
2022-09-26T12:25:10.191Z,15.96
2022-09-26T12:27:45.009Z,15.99
2022-09-26T12:30:15.001Z,16.00
2022-09-26T12:32:57.901Z,15.95
2022-09-26T12:36:02.031Z,15.96
2022-09-26T12:38:56.346Z,16.02
2022-09-26T12:41:51.466Z,15.98
2022-09-26T12:44:43.684Z,16.10
2022-09-26T12:47:10.137Z,16.07
2022-09-26T12:50:02.843Z,15.95
2022-09-26T12:52:47.961Z,16.12
2022-09-26T12:55:42.436Z,16.23
2022-09-26T12:58:28.573Z,16.44
2022-09-26T13:01:31.891Z,16.48
2022-09-26T13:04:56.200Z,16.62
2022-09-26T13:07:33.449Z,16.79
2022-09-26T13:10:04.151Z,16.94
2022-09-26T13:12:45.429Z,16.90
2022-09-26T13:15:34.626Z,17.07
2022-09-26T13:18:08.123Z,17.25
2022-09-26T13:20:43.077Z,17.68
2022-09-26T13:23:29.677Z,18.06
2022-09-26T13:26:08.269Z,18.50
2022-09-26T13:29:00.605Z,18.70
2022-09-26T13:31:39.699Z,18.88
2022-09-26T13:34:18.446Z,18.87
2022-09-26T13:36:46.572Z,18.76
2022-09-26T13:39:41.697Z,18.82
2022-09-26T13:42:18.152Z,18.75
2022-09-26T13:45:06.747Z,18.65
2022-09-26T13:47:55.414Z,18.56
2022-09-26T13:50:30.409Z,18.58
2022-09-26T13:53:26.177Z,18.57
2022-09-26T13:56:30.548Z,18.39
2022-09-26T13:59:13.683Z,18.27
2022-09-26T14:02:18.816Z,18.33
2022-09-26T14:04:51.778Z,18.29
2022-09-26T14:07:41.190Z,18.19
2022-09-26T14:10:18.367Z,17.96
2022-09-26T14:13:10.439Z,17.91
2022-09-26T14:15:56.376Z,17.91
2022-09-26T14:18:46.674Z,17.96
2022-09-26T14:21:37.749Z,17.90
2022-09-26T14:24:31.310Z,17.79
2022-09-26T14:27:04.164Z,17.64
2022-09-26T14:29:53.004Z,17.56
2022-09-26T14:32:26.562Z,17.57
2022-09-26T14:34:53.189Z,17.50
2022-09-26T14:37:23.306Z,17.24
2022-09-26T14:39:58.863Z,17.28
2022-09-26T14:42:31.250Z,17.29
2022-09-26T14:45:01.024Z,17.23
2022-09-26T14:47:38.548Z,17.22
2022-09-26T14:50:13.439Z,17.16
2022-09-26T14:52:39.650Z,17.12
2022-09-26T14:55:07.226Z,17.10
2022-09-26T14:57:34.969Z,17.06
2022-09-26T15:00:01.984Z,17.02
2022-09-26T15:02:38.395Z,16.99
2022-09-26T15:05:08.119Z,16.92
2022-09-26T15:07:46.278Z,16.91
2022-09-26T15:10:13.400Z,16.89
2022-09-26T15:12:49.480Z,16.78
2022-09-26T15:15:37.930Z,16.73
2022-09-26T15:18:18.793Z,16.79
2022-09-26T15:20:54.556Z,16.65
2022-09-26T15:23:29.725Z,16.63
2022-09-26T15:26:01.945Z,16.45
2022-09-26T15:28:33.879Z,16.39
2022-09-26T15:31:21.629Z,16.33
2022-09-26T15:33:54.131Z,16.31
2022-09-26T15:36:20.744Z,16.27
2022-09-26T15:38:48.699Z,16.23
2022-09-26T15:41:37.737Z,16.24
2022-09-26T15:44:18.458Z,16.29
2022-09-26T15:46:48.903Z,16.27
2022-09-26T15:49:23.870Z,16.28
2022-09-26T15:51:54.168Z,16.28
2022-09-26T15:54:32.393Z,16.26
2022-09-26T15:57:02.034Z,16.13
2022-09-26T15:59:40.702Z,16.10
2022-09-26T16:02:30.414Z,16.02
2022-09-26T16:04:57.801Z,15.98
2022-09-26T16:07:27.771Z,15.83
2022-09-26T16:09:55.485Z,15.79
2022-09-26T16:12:24.068Z,15.75
2022-09-26T16:15:04.794Z,15.71
2022-09-26T16:17:39.522Z,15.61
2022-09-26T16:20:09.314Z,15.52
2022-09-26T16:22:46.271Z,15.44
2022-09-26T16:25:29.022Z,15.33
2022-09-26T16:27:56.592Z,15.13
2022-09-26T16:30:23.198Z,14.92
2022-09-26T16:32:52.117Z,14.72
2022-09-26T16:35:27.301Z,14.53
2022-09-26T16:38:18.315Z,14.38
2022-09-26T16:40:57.065Z,14.17
2022-09-26T16:43:31.672Z,13.96
2022-09-26T16:46:08.356Z,13.82
2022-09-26T16:48:38.311Z,13.72
2022-09-26T16:51:16.988Z,13.49
2022-09-26T16:53:58.239Z,13.40
2022-09-26T16:56:25.605Z,13.34
2022-09-26T16:58:56.247Z,13.34
2022-09-26T17:01:42.498Z,13.26
2022-09-26T17:04:17.207Z,13.06
2022-09-26T17:06:47.013Z,13.05
2022-09-26T17:09:22.855Z,13.01
2022-09-26T17:11:52.573Z,12.99
2022-09-26T17:14:23.153Z,12.96
2022-09-26T17:16:57.454Z,12.96
2022-09-26T17:19:27.026Z,12.83
2022-09-26T17:21:54.329Z,12.78
2022-09-26T17:24:23.151Z,12.75
2022-09-26T17:26:57.203Z,12.68
2022-09-26T17:29:26.569Z,12.63
2022-09-26T17:31:54.786Z,12.63
2022-09-26T17:34:22.412Z,12.59
2022-09-26T17:36:49.210Z,12.51
2022-09-26T17:39:24.815Z,12.48
2022-09-26T17:41:58.607Z,12.42
2022-09-26T17:44:25.320Z,12.36
2022-09-26T17:46:54.598Z,12.31
2022-09-26T17:49:32.650Z,12.23
2022-09-26T17:52:01.641Z,12.25
2022-09-26T17:54:37.051Z,12.25
2022-09-26T17:57:07.276Z,12.30
2022-09-26T17:59:34.509Z,12.25
2022-09-26T18:02:12.740Z,12.26
2022-09-26T18:04:40.866Z,12.25
2022-09-26T18:07:15.592Z,12.23
2022-09-26T18:09:44.068Z,12.21
2022-09-26T18:12:17.931Z,12.23
2022-09-26T18:14:45.708Z,12.16
2022-09-26T18:17:17.818Z,12.15
2022-09-26T18:19:44.528Z,12.12
2022-09-26T18:22:17.656Z,12.04
2022-09-26T18:24:50.274Z,11.95
2022-09-26T18:27:20.158Z,11.88
2022-09-26T18:29:47.310Z,11.83
2022-09-26T18:32:29.067Z,11.81
2022-09-26T18:34:55.724Z,11.82
2022-09-26T18:37:21.853Z,11.83
2022-09-26T18:39:53.635Z,11.82
2022-09-26T18:42:23.739Z,11.87
2022-09-26T18:45:14.615Z,11.87
2022-09-26T18:47:42.657Z,11.83
2022-09-26T18:50:22.463Z,11.72
2022-09-26T18:52:49.953Z,11.66
2022-09-26T18:55:40.459Z,11.58
2022-09-26T18:58:23.885Z,11.53
2022-09-26T19:00:56.201Z,11.48
2022-09-26T19:03:25.960Z,11.51
2022-09-26T19:06:01.100Z,11.56
2022-09-26T19:08:32.943Z,11.59
2022-09-26T19:11:03.170Z,11.63
2022-09-26T19:13:31.080Z,11.65
2022-09-26T19:16:00.489Z,11.71
2022-09-26T19:18:26.792Z,11.73
2022-09-26T19:20:53.342Z,11.74
2022-09-26T19:23:20.439Z,11.74
2022-09-26T19:25:46.687Z,11.79
2022-09-26T19:28:20.605Z,11.80
2022-09-26T19:30:47.345Z,11.72
2022-09-26T19:33:14.019Z,11.65
2022-09-26T19:35:40.860Z,11.65
2022-09-26T19:38:26.168Z,11.64
2022-09-26T19:40:53.220Z,11.65
2022-09-26T19:43:23.601Z,11.65
2022-09-26T19:45:53.088Z,11.66
2022-09-26T19:48:22.719Z,11.71
2022-09-26T19:50:51.703Z,11.70
2022-09-26T19:53:20.636Z,11.74
2022-09-26T19:55:49.508Z,11.67
2022-09-26T19:58:25.846Z,11.69
2022-09-26T20:00:58.444Z,11.67
2022-09-26T20:03:39.590Z,11.68
2022-09-26T20:06:24.075Z,11.73
2022-09-26T20:08:53.758Z,11.71
2022-09-26T20:11:22.211Z,11.71
2022-09-26T20:14:07.075Z,11.70
2022-09-26T20:16:37.865Z,11.66
2022-09-26T20:19:05.827Z,11.70
2022-09-26T20:21:33.222Z,11.68
2022-09-26T20:24:00.021Z,11.65
2022-09-26T20:26:29.131Z,11.68
2022-09-26T20:28:56.604Z,11.68
2022-09-26T20:31:28.105Z,11.69
2022-09-26T20:33:56.325Z,11.66
2022-09-26T20:36:31.394Z,11.69
2022-09-26T20:39:04.519Z,11.65
2022-09-26T20:41:37.969Z,11.69
2022-09-26T20:44:08.585Z,11.67
2022-09-26T20:46:38.362Z,11.66
2022-09-26T20:49:12.361Z,11.63
2022-09-26T20:51:39.097Z,11.59
2022-09-26T20:54:14.148Z,11.52
2022-09-26T20:56:40.995Z,11.51
2022-09-26T20:59:07.943Z,11.51
2022-09-26T21:01:34.214Z,11.42
2022-09-26T21:04:01.444Z,11.42
2022-09-26T21:06:32.865Z,11.42
2022-09-26T21:08:59.915Z,11.37
2022-09-26T21:11:26.602Z,11.41
2022-09-26T21:13:52.921Z,11.42
2022-09-26T21:16:21.065Z,11.41
2022-09-26T21:18:50.670Z,11.44
2022-09-26T21:21:26.912Z,11.43
2022-09-26T21:24:15.795Z,11.49
2022-09-26T21:26:42.397Z,11.51
2022-09-26T21:29:15.391Z,11.52
2022-09-26T21:31:47.695Z,11.53
2022-09-26T21:34:21.496Z,11.49
2022-09-26T21:36:50.626Z,11.52
2022-09-26T21:39:18.411Z,11.49
2022-09-26T21:41:50.079Z,11.46
2022-09-26T21:44:24.246Z,11.48
2022-09-26T21:46:51.267Z,11.50
2022-09-26T21:49:18.040Z,11.51
2022-09-26T21:51:49.302Z,11.58
2022-09-26T21:54:22.576Z,11.57
2022-09-26T21:56:53.062Z,11.60
2022-09-26T21:59:21.801Z,11.63
2022-09-26T22:01:48.299Z,11.73
2022-09-26T22:04:14.745Z,11.82
2022-09-26T22:06:41.345Z,11.96
2022-09-26T22:09:08.556Z,11.96
2022-09-26T22:11:36.184Z,11.94
2022-09-26T22:14:03.807Z,11.94
2022-09-26T22:16:30.164Z,11.96
2022-09-26T22:18:57.170Z,12.04
2022-09-26T22:21:23.351Z,12.05
2022-09-26T22:23:50.847Z,12.10
2022-09-26T22:26:18.444Z,12.11
2022-09-26T22:28:44.982Z,12.07
2022-09-26T22:31:11.676Z,12.10
2022-09-26T22:33:38.110Z,12.07
2022-09-26T22:36:06.052Z,12.07
2022-09-26T22:38:33.549Z,12.04
2022-09-26T22:41:02.495Z,12.10
2022-09-26T22:43:28.917Z,12.13
2022-09-26T22:46:10.343Z,12.06
2022-09-26T22:48:41.348Z,12.13
2022-09-26T22:51:09.443Z,12.14
2022-09-26T22:53:37.844Z,12.13
2022-09-26T22:56:07.372Z,12.20
2022-09-26T22:58:36.856Z,12.29
2022-09-26T23:01:05.294Z,12.30
2022-09-26T23:03:35.040Z,12.37
2022-09-26T23:06:02.428Z,12.41
2022-09-26T23:08:28.582Z,12.47
2022-09-26T23:10:55.898Z,12.43
2022-09-26T23:13:25.130Z,12.47
2022-09-26T23:15:51.633Z,12.50
2022-09-26T23:18:18.343Z,12.53
2022-09-26T23:20:44.830Z,12.49
2022-09-26T23:23:12.894Z,12.47
2022-09-26T23:25:49.577Z,12.43
2022-09-26T23:28:16.834Z,12.43
2022-09-26T23:30:43.533Z,12.39
2022-09-26T23:33:09.852Z,12.30
2022-09-26T23:35:36.281Z,12.34
2022-09-26T23:38:05.174Z,12.25
2022-09-26T23:40:31.867Z,12.18
2022-09-26T23:43:00.874Z,12.15
2022-09-26T23:45:27.596Z,12.19
2022-09-26T23:47:53.671Z,12.17
2022-09-26T23:50:20.065Z,12.16
2022-09-26T23:52:46.383Z,12.16
2022-09-26T23:55:13.230Z,12.10
2022-09-26T23:57:39.309Z,12.07
